»·PEaware :: WAT462 KSNA-KPHX

WAT462 :: KSNA-KPHX

FLIGHT INFORMATION

Flight Status: Arrived
Operator:
Walker Air Transport
More flights by this operator :: More flights under this callsign
Pilot: Andrew C. (32327)
Aircraft: BEECH AIRCRAFT PREMIER
(PRM1)
More flights by this aircraft type
Origin: KSNA John Wayne-Orange Co
United States
Destination: KPHX Phoenix Sky Harbor Intl
United States
More flights between these airports :: More routes between these airports
Route: PIGGN2 CNERY BLH HYDRR1
File this flight plan on PilotEdge
Remarks:
Altitude:
(Current/Filed)
25,000ft
Speed:
(Current/Filed)
300kts
Departed: 12-Oct-21 04:22 PM
Arrived: 12-Oct-21 05:17 PM
Distance/Time
Traveled:
293nm/0:54
Distance/Time
To Go:
Arrived

Flight Plot

Page will automatically refresh every two minutes.

Flight plan parsing failed; only flown route is shown


Map Options




Map Legend


Flown Route
Filed Route
Departure Airport
Arrival Airport
Navaid (VOR, NDB)
Fix

Horizontal Profiles

Position Reports

Time Latitude Longitude Heading Altitude Ground
Speed
12-Oct-21 16:13 33.672970 -117.872800 115 63ft 0kts
12-Oct-21 16:14 33.672970 -117.872800 115 63ft 0kts
12-Oct-21 16:15 33.672970 -117.872800 115 63ft 0kts
12-Oct-21 16:16 33.672970 -117.872800 115 63ft 0kts
12-Oct-21 16:17 33.672970 -117.872800 115 63ft 0kts
12-Oct-21 16:18 33.674626 -117.871083 33 63ft 23kts
12-Oct-21 16:19 33.681094 -117.867082 29 63ft 21kts
12-Oct-21 16:20 33.681904 -117.865837 117 63ft 9kts
12-Oct-21 16:21 33.662869 -117.877060 210 509ft 139kts
12-Oct-21 16:22 33.614812 -117.893088 189 2124ft 210kts
12-Oct-21 16:23 33.564339 -117.894433 158 5694ft 170kts
12-Oct-21 16:24 33.517989 -117.865881 150 8253ft 205kts
12-Oct-21 16:25 33.485293 -117.802753 110 10562ft 241kts
12-Oct-21 16:26 33.479567 -117.715993 77 12733ft 266kts
12-Oct-21 16:27 33.510415 -117.636405 51 15298ft 256kts
12-Oct-21 16:28 33.551162 -117.550990 51 17617ft 271kts
12-Oct-21 16:29 33.577026 -117.453985 104 19733ft 309kts
12-Oct-21 16:30 33.540964 -117.346592 108 21597ft 322kts
12-Oct-21 16:31 33.506272 -117.235573 97 23217ft 330kts
12-Oct-21 16:32 33.502673 -117.112842 86 24754ft 334kts
12-Oct-21 16:33 33.499833 -116.978917 86 24984ft 383kts
12-Oct-21 16:34 33.497201 -116.830101 86 24962ft 418kts
12-Oct-21 16:35 33.495463 -116.669929 86 24962ft 438kts
12-Oct-21 16:36 33.493300 -116.503959 86 24962ft 450kts
12-Oct-21 16:37 33.490883 -116.334920 87 24957ft 457kts
12-Oct-21 16:38 33.488219 -116.163305 87 24955ft 460kts
12-Oct-21 16:39 33.495089 -115.994300 64 24966ft 447kts
12-Oct-21 16:40 33.542834 -115.838878 64 24972ft 449kts
12-Oct-21 16:41 33.588266 -115.683708 64 24981ft 450kts
12-Oct-21 16:42 33.625516 -115.522769 85 24990ft 465kts
12-Oct-21 16:43 33.614493 -115.356235 89 24987ft 468kts
12-Oct-21 16:44 33.608047 -115.186707 88 24978ft 467kts
12-Oct-21 16:45 33.603343 -115.015088 88 24968ft 467kts
12-Oct-21 16:46 33.598415 -114.840664 88 24964ft 467kts
12-Oct-21 16:47 33.578066 -114.671502 99 24965ft 471kts
12-Oct-21 16:48 33.546648 -114.506638 100 24965ft 472kts
12-Oct-21 16:49 33.516593 -114.353317 100 24965ft 473kts
12-Oct-21 16:50 33.486103 -114.198990 101 24955ft 473kts
12-Oct-21 16:51 33.455209 -114.043756 101 25000ft 472kts
12-Oct-21 16:52 33.424347 -113.890123 100 23365ft 460kts
12-Oct-21 16:53 33.395698 -113.748089 100 21829ft 413kts
12-Oct-21 16:54 33.367843 -113.610132 101 20520ft 436kts
12-Oct-21 16:55 33.337902 -113.463305 101 19206ft 449kts
12-Oct-21 16:56 33.312360 -113.317151 100 17660ft 418kts
12-Oct-21 16:57 33.289864 -113.181098 98 16109ft 397kts
12-Oct-21 16:58 33.275158 -113.046315 88 14821ft 374kts
12-Oct-21 16:59 33.278152 -112.916188 86 13219ft 358kts
12-Oct-21 17:00 33.286521 -112.792290 60 11619ft 339kts
12-Oct-21 17:01 33.316668 -112.683351 88 11020ft 310kts
12-Oct-21 17:03 33.319380 -112.570557 86 11022ft 324kts
12-Oct-21 17:04 33.321795 -112.454004 87 11019ft 328kts
12-Oct-21 17:05 33.324300 -112.339872 84 10925ft 322kts
12-Oct-21 17:06 33.334115 -112.240265 82 9375ft 256kts
12-Oct-21 17:07 33.342210 -112.152828 83 9021ft 251kts
12-Oct-21 17:08 33.347232 -112.064370 90 8278ft 241kts
12-Oct-21 17:09 33.346162 -111.978133 90 6755ft 248kts
12-Oct-21 17:10 33.346441 -111.897414 88 5187ft 226kts
12-Oct-21 17:11 33.355966 -111.833394 27 4759ft 200kts
12-Oct-21 17:12 33.408361 -111.843079 314 3383ft 202kts
12-Oct-21 17:13 33.428547 -111.886553 274 3007ft 120kts
12-Oct-21 17:14 33.428687 -111.928157 270 2353ft 120kts
12-Oct-21 17:15 33.428668 -111.969109 272 1770ft 115kts
12-Oct-21 17:16 33.428816 -112.006320 271 1125ft 91kts
12-Oct-21 17:17 33.427757 -112.017988 269 1119ft 24kts
12-Oct-21 17:18 33.426056 -112.020814 88 1118ft 0kts

Navigation Log

Ident Type
Flight plan parsing failed, navigation log unavailable